createdAt,value
2019-04-23T04:25:44.751Z,53.70
2019-04-23T04:31:35.090Z,53.90
2019-04-23T04:36:21.786Z,53.70
2019-04-23T04:38:44.943Z,53.80
2019-04-23T04:41:25.511Z,54.00
2019-04-23T04:49:01.619Z,54.40
2019-04-23T04:51:37.706Z,54.40
2019-04-23T04:54:18.909Z,54.50
2019-04-23T04:56:43.093Z,54.30
2019-04-23T04:59:11.894Z,54.50
2019-04-23T05:01:54.202Z,54.90
2019-04-23T05:04:37.819Z,54.90
2019-04-23T05:07:04.110Z,55.20
2019-04-23T05:09:30.879Z,55.30
2019-04-23T05:14:33.541Z,55.60
2019-04-23T05:17:13.570Z,55.80
2019-04-23T05:19:43.007Z,56.00
2019-04-23T05:22:16.598Z,55.90
2019-04-23T05:24:46.520Z,56.20
2019-04-23T05:27:19.307Z,56.30
2019-04-23T05:29:53.104Z,56.60
2019-04-23T05:32:26.462Z,56.70
2019-04-23T05:34:57.905Z,56.70
2019-04-23T05:37:45.184Z,56.70
2019-04-23T05:40:08.480Z,56.90
2019-04-23T05:42:40.070Z,56.90
2019-04-23T05:45:30.202Z,57.20
2019-04-23T05:48:52.545Z,57.20
2019-04-23T05:54:46.455Z,57.00
2019-04-23T05:57:09.012Z,57.30
2019-04-23T05:59:43.241Z,57.40
2019-04-23T06:02:10.514Z,57.70
2019-04-23T06:04:42.706Z,57.70
2019-04-23T06:07:28.813Z,57.90
2019-04-23T06:09:52.107Z,57.90
2019-04-23T06:12:18.721Z,57.80
2019-04-23T06:17:25.440Z,58.60
2019-04-23T06:20:05.872Z,58.60
2019-04-23T06:22:34.687Z,58.80
2019-04-23T06:25:27.877Z,59.00
2019-04-23T06:27:39.364Z,58.90
2019-04-23T06:30:22.802Z,59.10
2019-04-23T06:32:44.463Z,59.00
2019-04-23T06:35:48.174Z,58.90
2019-04-23T06:40:34.276Z,59.10
2019-04-23T06:43:26.405Z,59.20
2019-04-23T06:45:49.433Z,59.10
2019-04-23T06:48:38.473Z,59.20
2019-04-23T06:51:15.887Z,59.40
2019-04-23T06:53:40.760Z,59.00
2019-04-23T06:56:21.019Z,59.20
2019-04-23T06:59:07.598Z,59.10
2019-04-23T07:01:37.746Z,59.00
2019-04-23T07:04:12.386Z,59.70
2019-04-23T07:06:46.879Z,59.50
2019-04-23T07:09:15.225Z,59.10
2019-04-23T07:11:47.933Z,59.50
2019-04-23T07:14:32.244Z,59.50
2019-04-23T07:16:58.541Z,59.60
2019-04-23T07:19:33.869Z,59.10
2019-04-23T07:24:40.619Z,59.10
2019-04-23T07:27:03.295Z,59.10
2019-04-23T07:33:16.722Z,58.90
2019-04-23T07:35:45.368Z,59.10
2019-04-23T07:38:47.496Z,59.50
2019-04-23T07:41:23.415Z,59.00
2019-04-23T07:49:48.880Z,58.60
2019-04-23T07:52:27.554Z,59.00
2019-04-23T07:55:06.623Z,59.20
2019-04-23T07:57:35.018Z,59.10
2019-04-23T08:00:07.873Z,58.90
2019-04-23T08:02:49.944Z,59.10
2019-04-23T08:05:29.206Z,59.00
2019-04-23T08:08:03.894Z,59.10
2019-04-23T08:10:35.739Z,59.40
2019-04-23T08:18:36.821Z,59.10
2019-04-23T08:21:14.454Z,59.10
2019-04-23T08:30:59.036Z,59.60
2019-04-23T08:33:45.125Z,59.60
2019-04-23T08:36:11.709Z,59.40
2019-04-23T08:38:57.022Z,59.50
2019-04-23T08:41:35.914Z,59.50
2019-04-23T08:44:11.319Z,59.90
2019-04-23T08:49:29.364Z,59.30
2019-04-23T08:54:56.742Z,59.60
2019-04-23T08:57:38.311Z,59.80
2019-04-23T09:00:37.307Z,60.00
2019-04-23T09:08:19.285Z,59.80
2019-04-23T09:16:35.908Z,59.70
2019-04-23T09:19:16.536Z,60.00
2019-04-23T09:21:58.044Z,59.40
2019-04-23T09:24:43.107Z,59.70
2019-04-23T09:27:23.367Z,59.80
2019-04-23T09:42:00.605Z,59.60
2019-04-23T09:55:12.004Z,58.90
2019-04-23T10:01:25.990Z,58.80
2019-04-23T10:06:32.690Z,57.50
2019-04-23T10:11:49.277Z,56.40
2019-04-23T10:15:08.064Z,56.10
2019-04-23T10:24:03.504Z,55.80
2019-04-23T10:26:35.478Z,55.20
2019-04-23T10:29:13.870Z,55.50
2019-04-23T10:31:45.890Z,54.70
2019-04-23T10:34:17.065Z,55.10
2019-04-23T10:36:49.340Z,55.00
2019-04-23T10:39:25.591Z,54.30
2019-04-23T10:41:54.859Z,54.30
2019-04-23T10:44:46.437Z,54.20
2019-04-23T10:48:13.834Z,54.50
2019-04-23T10:50:55.385Z,54.00
2019-04-23T10:53:46.054Z,53.90
2019-04-23T11:05:22.571Z,53.10
2019-04-23T11:07:51.478Z,52.50
2019-04-23T11:10:26.293Z,51.90
2019-04-23T11:23:29.112Z,51.40
2019-04-23T11:26:06.534Z,50.90
2019-04-23T11:28:50.331Z,48.70
2019-04-23T11:42:08.608Z,46.90
2019-04-23T11:44:49.129Z,45.70
2019-04-23T11:47:12.604Z,45.50
2019-04-23T11:49:53.408Z,44.70
2019-04-23T11:53:11.669Z,45.00
2019-04-23T11:55:52.098Z,44.60
2019-04-23T12:07:17.279Z,42.30
2019-04-23T12:15:23.885Z,42.00
2019-04-23T12:17:50.857Z,41.40
2019-04-23T12:20:28.925Z,40.90
2019-04-23T12:23:06.392Z,41.00
2019-04-23T12:25:34.100Z,40.60
2019-04-23T12:27:59.707Z,39.60
2019-04-23T12:30:39.603Z,39.20
2019-04-23T12:33:13.313Z,38.90
2019-04-23T12:35:37.494Z,38.10
2019-04-23T12:38:25.644Z,37.40
2019-04-23T12:40:45.676Z,37.80
2019-04-23T12:43:19.312Z,38.00
2019-04-23T12:45:47.051Z,37.50
2019-04-23T12:48:33.847Z,37.90
2019-04-23T12:53:30.394Z,39.00
2019-04-23T12:56:25.613Z,39.80
2019-04-23T13:00:57.354Z,41.60
2019-04-23T13:03:37.254Z,42.10
2019-04-23T13:06:10.244Z,42.50
2019-04-23T13:08:46.587Z,43.20
2019-04-23T13:11:17.597Z,43.60
2019-04-23T13:13:51.975Z,43.50
2019-04-23T13:16:25.252Z,42.90
2019-04-23T13:24:15.914Z,42.40
2019-04-23T13:26:44.626Z,42.10
2019-04-23T13:29:33.097Z,39.70
2019-04-23T13:31:53.556Z,38.00
2019-04-23T13:34:38.057Z,36.60
2019-04-23T13:39:33.036Z,33.70
2019-04-23T13:42:12.008Z,33.00
2019-04-23T13:44:42.698Z,35.60
2019-04-23T13:47:30.447Z,36.80
2019-04-23T13:49:51.146Z,36.40
2019-04-23T13:52:47.829Z,36.90
2019-04-23T13:57:57.340Z,35.40
2019-04-23T14:00:22.634Z,35.10
2019-04-23T14:02:52.665Z,34.30
2019-04-23T14:05:49.332Z,33.30
2019-04-23T14:08:41.605Z,32.50
2019-04-23T14:10:55.843Z,32.80
2019-04-23T14:18:55.201Z,33.00
2019-04-23T14:21:20.505Z,34.90
2019-04-23T14:24:03.309Z,36.60
2019-04-23T14:31:23.541Z,39.10
2019-04-23T14:41:31.080Z,41.10
2019-04-23T14:44:18.587Z,40.90
2019-04-23T14:47:14.681Z,40.00
2019-04-23T14:49:44.707Z,39.80
2019-04-23T14:52:12.090Z,38.70
2019-04-23T14:55:31.526Z,40.80
2019-04-23T14:57:31.703Z,41.60
2019-04-23T14:59:54.016Z,41.40
2019-04-23T15:05:04.068Z,40.80
2019-04-23T15:07:37.590Z,40.10
2019-04-23T15:10:23.295Z,39.20
2019-04-23T15:12:48.633Z,39.40
2019-04-23T15:15:14.357Z,40.30
2019-04-23T15:17:53.586Z,40.00
2019-04-23T15:20:22.827Z,40.30
2019-04-23T15:30:29.504Z,44.70
2019-04-23T15:35:53.352Z,45.80
2019-04-23T15:38:37.550Z,45.90
2019-04-23T15:40:55.458Z,45.80
2019-04-23T15:43:14.493Z,46.10
2019-04-23T15:46:09.852Z,46.70
2019-04-23T15:48:24.072Z,47.20
2019-04-23T15:51:10.085Z,47.30
2019-04-23T15:53:30.910Z,47.40
2019-04-23T15:56:18.766Z,47.60
2019-04-23T15:58:56.184Z,48.30
2019-04-23T16:03:27.483Z,48.30
2019-04-23T16:05:57.408Z,48.40
2019-04-23T16:09:04.999Z,48.60
2019-04-23T16:14:17.562Z,48.90
2019-04-23T16:16:37.425Z,49.00
2019-04-23T16:19:25.831Z,48.90
2019-04-23T16:22:01.815Z,48.50
2019-04-23T16:24:21.848Z,48.40
2019-04-23T16:27:16.247Z,49.20
2019-04-23T16:29:46.632Z,49.40
2019-04-23T16:32:14.825Z,49.40
2019-04-23T16:34:50.696Z,49.70
2019-04-23T16:37:20.205Z,49.30
2019-04-23T16:40:01.842Z,50.00
2019-04-23T16:45:15.215Z,50.30
2019-04-23T16:47:32.873Z,50.90
2019-04-23T16:50:14.246Z,50.30
2019-04-23T16:52:39.496Z,50.40
2019-04-23T16:55:24.012Z,50.60
2019-04-23T16:58:01.640Z,51.00
2019-04-23T17:00:33.763Z,51.20
2019-04-23T17:03:11.198Z,51.10
2019-04-23T17:05:39.479Z,51.80
2019-04-23T17:13:27.094Z,51.20
2019-04-23T17:16:38.233Z,50.90
2019-04-23T17:40:14.097Z,52.10
2019-04-23T17:47:34.653Z,53.60
2019-04-23T17:50:27.074Z,54.00
2019-04-23T17:53:26.861Z,55.20
2019-04-23T18:00:03.335Z,55.60
2019-04-23T18:02:48.264Z,55.60
2019-04-23T18:07:38.068Z,56.10
2019-04-23T18:13:04.411Z,56.50
2019-04-23T18:16:35.449Z,56.60
2019-04-23T18:19:34.347Z,56.60
2019-04-23T18:28:30.062Z,57.50
2019-04-23T18:38:13.433Z,58.10
2019-04-23T18:40:54.285Z,58.30
2019-04-23T18:45:53.172Z,59.30
2019-04-23T18:53:45.592Z,60.60
2019-04-23T18:58:54.406Z,61.90
2019-04-23T19:01:23.181Z,62.60
2019-04-23T19:04:09.674Z,62.80
2019-04-23T19:06:37.797Z,63.80
2019-04-23T19:09:33.805Z,64.10
2019-04-23T19:12:31.378Z,65.30
2019-04-23T19:15:04.023Z,67.40
2019-04-23T19:17:46.438Z,68.70
2019-04-23T19:20:01.140Z,69.10
2019-04-23T19:22:47.217Z,70.40
2019-04-23T19:25:42.095Z,70.50
2019-04-23T19:28:30.317Z,70.50
2019-04-23T19:31:07.420Z,70.40
2019-04-23T19:33:54.830Z,70.60
2019-04-23T19:36:26.505Z,70.40
2019-04-23T19:39:05.487Z,70.40
2019-04-23T19:41:44.648Z,70.20
2019-04-23T19:44:12.885Z,71.20
2019-04-23T19:46:50.687Z,72.10
2019-04-23T19:51:48.238Z,73.60
2019-04-23T19:59:31.660Z,75.60
2019-04-23T20:02:00.222Z,75.60
2019-04-23T20:04:40.706Z,76.80
2019-04-23T20:09:50.451Z,76.70
2019-04-23T20:12:28.338Z,77.30
2019-04-23T20:14:54.874Z,79.00
2019-04-23T20:19:56.744Z,81.60
2019-04-23T20:22:41.760Z,82.60
2019-04-23T20:25:46.361Z,83.50
2019-04-23T20:28:17.279Z,84.60
2019-04-23T20:34:01.280Z,89.10
2019-04-23T20:36:34.614Z,90.90
2019-04-23T20:39:17.397Z,92.00
2019-04-23T20:42:07.878Z,92.80
2019-04-23T20:44:35.870Z,93.20
2019-04-23T20:47:11.614Z,93.40
2019-04-23T20:49:38.790Z,93.10
2019-04-23T20:54:56.885Z,93.30
2019-04-23T21:00:09.078Z,93.30
2019-04-23T21:05:20.867Z,93.50
2019-04-23T21:07:59.105Z,93.80
2019-04-23T21:10:35.931Z,94.30
2019-04-23T21:23:12.463Z,95.40
2019-04-23T21:25:44.885Z,96.00
2019-04-23T21:28:35.910Z,96.50
2019-04-23T21:31:19.503Z,97.20
2019-04-23T21:33:50.656Z,98.30
2019-04-23T21:36:40.431Z,98.70
2019-04-23T21:40:12.454Z,98.40
2019-04-23T21:42:39.074Z,98.40
2019-04-23T21:44:53.951Z,98.40
2019-04-23T21:47:42.635Z,98.30
2019-04-23T21:52:33.996Z,98.40
